Time;durP1;ratioP1;P1;durP2;ratioP2;P2;SDS_P1;SDS_P2;PMS_P1;PMS_P2;Temp;Humidity;BMP_temperature;BMP_pressure;BME280_temperature;BME280_humidity;BME280_pressure;Samples;Min_cycle;Max_cycle;Signal;HPM_P1;HPM_P2
2023/09/04 00:00:05;;;;;;;9.07;4.10;;;;;;;14.98;81.91;101085.59;4195206;28;20376;-66
2023/09/04 00:02:32;;;;;;;8.20;4.10;;;;;;;15.02;82.13;101083.41;4185951;28;20442;-67
2023/09/04 00:04:59;;;;;;;7.93;3.77;;;;;;;14.97;81.94;101081.16;4177607;28;22167;-67
2023/09/04 00:07:26;;;;;;;9.70;3.80;;;;;;;14.93;82.32;101085.22;4165741;28;21524;-64
2023/09/04 00:09:52;;;;;;;8.80;4.07;;;;;;;14.91;82.36;101089.97;4191587;28;21264;-69
2023/09/04 00:12:19;;;;;;;8.27;4.10;;;;;;;14.93;82.37;101070.72;4177129;28;22544;-67
2023/09/04 00:14:46;;;;;;;9.53;3.23;;;;;;;14.80;82.73;101066.56;4190052;28;20925;-69
2023/09/04 00:17:13;;;;;;;6.30;3.43;;;;;;;14.78;82.50;101073.19;4184536;28;20431;-68
2023/09/04 00:19:39;;;;;;;9.13;4.40;;;;;;;14.61;83.82;101077.66;4186439;28;21464;-67
2023/09/04 00:22:06;;;;;;;8.20;3.83;;;;;;;14.61;83.98;101073.03;4183593;28;21877;-66
2023/09/04 00:24:33;;;;;;;12.53;4.13;;;;;;;14.47;84.79;101071.72;4162793;28;20229;-69
2023/09/04 00:26:59;;;;;;;11.27;3.90;;;;;;;14.45;84.76;101071.03;4182696;28;20265;-65
2023/09/04 00:29:27;;;;;;;8.43;3.77;;;;;;;14.46;84.65;101074.63;4193608;28;21728;-65
2023/09/04 00:31:53;;;;;;;10.23;4.50;;;;;;;14.29;85.63;101079.91;4188647;28;20355;-68
2023/09/04 00:34:20;;;;;;;8.20;4.00;;;;;;;14.24;86.03;101074.94;4177465;28;22325;-65
2023/09/04 00:36:46;;;;;;;8.67;4.30;;;;;;;14.19;86.43;101071.81;4182671;28;21888;-67
2023/09/04 00:39:13;;;;;;;8.37;3.80;;;;;;;14.26;85.98;101082.97;4180873;28;25392;-68
2023/09/04 00:41:39;;;;;;;10.60;3.87;;;;;;;14.30;85.84;101081.63;4186998;28;20233;-68
2023/09/04 00:44:06;;;;;;;9.30;4.23;;;;;;;14.25;86.07;101073.91;4178828;28;20433;-67
2023/09/04 00:46:33;;;;;;;6.27;3.80;;;;;;;14.27;86.11;101081.94;4183975;28;20240;-67
2023/09/04 00:49:00;;;;;;;9.83;4.33;;;;;;;14.24;86.39;101082.25;4180919;28;20354;-67
2023/09/04 00:51:26;;;;;;;8.23;4.37;;;;;;;14.15;87.34;101089.50;4183362;28;20267;-69
2023/09/04 00:53:53;;;;;;;11.60;4.50;;;;;;;14.10;87.06;101086.34;4171491;28;23398;-67
2023/09/04 00:56:20;;;;;;;5.63;3.80;;;;;;;14.06;87.21;101093.97;4184367;28;20615;-66
2023/09/04 00:58:48;;;;;;;11.53;4.70;;;;;;;14.05;87.64;101085.97;4188092;28;20251;-67
2023/09/04 01:01:15;;;;;;;7.93;4.23;;;;;;;13.97;88.00;101089.47;4177541;28;20563;-66
2023/09/04 01:03:41;;;;;;;8.57;3.93;;;;;;;13.91;88.15;101090.94;4181891;28;20238;-68
2023/09/04 01:06:08;;;;;;;8.33;4.30;;;;;;;13.96;87.89;101087.78;4186829;28;20852;-68
2023/09/04 01:08:36;;;;;;;7.33;4.43;;;;;;;13.89;88.61;101087.50;4183620;28;20230;-69
2023/09/04 01:11:26;;;;;;;7.20;4.10;;;;;;;13.87;88.75;101081.38;4179960;28;20244;-67
2023/09/04 01:13:54;;;;;;;9.07;4.60;;;;;;;13.89;88.52;101081.22;4178581;28;20950;-69
2023/09/04 01:16:21;;;;;;;8.73;4.70;;;;;;;13.89;88.53;101079.34;4176858;28;20233;-68
2023/09/04 01:18:49;;;;;;;7.87;4.50;;;;;;;13.87;88.55;101075.91;4182375;28;20244;-67
2023/09/04 01:21:16;;;;;;;13.17;4.47;;;;;;;13.85;88.67;101075.25;4197457;28;20244;-69
2023/09/04 01:23:43;;;;;;;6.80;4.17;;;;;;;13.84;88.84;101078.09;4181281;28;20233;-71
2023/09/04 01:26:14;;;;;;;9.50;4.70;;;;;;;13.76;88.93;101082.44;4177821;28;21114;-68
2023/09/04 01:28:55;;;;;;;9.57;4.60;;;;;;;13.74;89.23;101087.19;4186665;28;20237;-66
2023/09/04 01:31:27;;;;;;;7.50;4.13;;;;;;;13.72;89.57;101088.31;4182772;28;20260;-66
2023/09/04 01:34:04;;;;;;;8.00;4.57;;;;;;;13.67;89.64;101091.50;4181743;28;21604;-66
2023/09/04 01:36:33;;;;;;;7.90;4.60;;;;;;;13.66;90.04;101100.69;4189498;28;20305;-71
2023/09/04 01:39:00;;;;;;;7.97;4.20;;;;;;;13.62;90.37;101083.81;4185570;28;20229;-66
2023/09/04 01:41:27;;;;;;;10.80;4.70;;;;;;;13.55;90.08;101080.00;4185383;28;20245;-67
2023/09/04 01:43:54;;;;;;;8.63;5.13;;;;;;;13.56;90.87;101083.56;4179426;28;20235;-67
2023/09/04 01:46:21;;;;;;;7.80;4.70;;;;;;;13.56;91.08;101081.69;4188438;28;20964;-66
2023/09/04 01:48:48;;;;;;;8.80;4.90;;;;;;;13.57;91.19;101085.28;4184384;28;20238;-67
2023/09/04 01:51:15;;;;;;;10.57;5.10;;;;;;;13.53;91.41;101100.16;4180414;28;20234;-67
2023/09/04 01:53:42;;;;;;;14.00;4.93;;;;;;;13.53;91.28;101092.00;4177178;28;20676;-66
2023/09/04 01:56:09;;;;;;;8.13;4.50;;;;;;;13.56;91.41;101098.00;4178318;28;20246;-67
2023/09/04 01:58:35;;;;;;;13.47;5.33;;;;;;;13.53;91.89;101106.47;4178356;28;20238;-67
2023/09/04 02:01:02;;;;;;;14.83;5.97;;;;;;;13.51;91.72;101102.22;4188788;28;22200;-65
2023/09/04 02:03:28;;;;;;;8.40;5.13;;;;;;;13.30;92.18;101117.72;4183560;28;20241;-68
2023/09/04 02:05:55;;;;;;;11.03;5.40;;;;;;;13.14;92.81;101115.59;4179737;28;20409;-67
2023/09/04 02:08:22;;;;;;;10.77;5.17;;;;;;;13.02;93.70;101122.22;4175661;28;22472;-67
2023/09/04 02:10:49;;;;;;;9.67;5.03;;;;;;;12.95;94.26;101129.25;4185900;28;20230;-67
2023/09/04 02:13:16;;;;;;;9.03;4.83;;;;;;;12.89;94.50;101133.41;4179879;28;21153;-67
2023/09/04 02:15:43;;;;;;;9.00;5.10;;;;;;;12.91;94.45;101138.72;4176509;28;20234;-67
2023/09/04 02:18:10;;;;;;;9.77;5.03;;;;;;;12.87;94.55;101137.25;4180039;28;21155;-66
2023/09/04 02:20:36;;;;;;;8.73;5.37;;;;;;;12.87;94.87;101143.56;4182477;28;21494;-68
2023/09/04 02:23:03;;;;;;;8.97;5.53;;;;;;;12.80;95.93;101139.72;4175928;28;20244;-67
2023/09/04 02:25:30;;;;;;;9.87;5.33;;;;;;;12.80;96.19;101145.16;4180354;28;20292;-67
2023/09/04 02:27:56;;;;;;;9.17;5.10;;;;;;;12.94;95.31;101150.13;4188972;28;20851;-67
2023/09/04 02:30:23;;;;;;;10.60;5.57;;;;;;;12.93;95.13;101147.53;4177998;28;20233;-66
2023/09/04 02:32:50;;;;;;;11.07;5.03;;;;;;;12.93;95.73;101151.13;4173946;28;20237;-67
2023/09/04 02:35:16;;;;;;;11.27;5.30;;;;;;;12.98;95.42;101156.97;4176680;28;20249;-68
2023/09/04 02:37:44;;;;;;;10.60;6.00;;;;;;;12.99;95.50;101152.44;4179098;28;20237;-67
2023/09/04 02:40:11;;;;;;;13.53;5.77;;;;;;;12.89;96.41;101146.97;4182181;28;20249;-67
2023/09/04 02:42:38;;;;;;;13.03;6.27;;;;;;;12.94;96.42;101151.97;4176246;28;20825;-68
2023/09/04 02:45:07;;;;;;;13.13;6.33;;;;;;;12.85;96.97;101145.56;4183649;28;26266;-68
2023/09/04 02:47:35;;;;;;;12.20;6.20;;;;;;;12.83;97.30;101151.16;4180096;28;20305;-70
2023/09/04 02:50:05;;;;;;;10.17;5.77;;;;;;;12.88;97.16;101158.84;4172555;28;20233;-68
2023/09/04 02:52:32;;;;;;;14.57;6.50;;;;;;;12.94;96.88;101161.00;4182718;28;20462;-67
2023/09/04 02:54:59;;;;;;;12.13;6.57;;;;;;;12.97;96.47;101163.41;4182218;28;20237;-67
2023/09/04 02:57:28;;;;;;;12.10;5.80;;;;;;;12.91;96.85;101174.03;4175305;28;20234;-65
2023/09/04 02:59:55;;;;;;;15.13;6.73;;;;;;;12.68;98.60;101174.31;4172378;28;20602;-66
2023/09/04 03:02:22;;;;;;;13.60;6.70;;;;;;;12.68;99.36;101175.19;4175460;28;20241;-68
2023/09/04 03:04:55;;;;;;;10.07;6.00;;;;;;;12.89;98.63;101176.88;4175193;28;21574;-66
2023/09/04 03:07:26;;;;;;;12.67;6.43;;;;;;;13.07;97.53;101171.56;4182221;28;20237;-68
2023/09/04 03:10:00;;;;;;;12.03;5.90;;;;;;;12.98;97.94;101176.00;4177914;28;20233;-66
2023/09/04 03:12:32;;;;;;;10.80;5.70;;;;;;;13.02;98.03;101179.28;4180944;28;20616;-68
2023/09/04 03:15:00;;;;;;;11.80;6.57;;;;;;;12.94;98.93;101184.59;4184058;28;20241;-66
2023/09/04 03:17:28;;;;;;;13.03;5.73;;;;;;;13.01;98.93;101177.56;4178949;28;21484;-65
2023/09/04 03:19:57;;;;;;;12.40;6.50;;;;;;;12.96;99.49;101182.59;4174673;28;22843;-67
2023/09/04 03:22:26;;;;;;;14.17;6.53;;;;;;;12.96;99.44;101174.44;4180171;28;20237;-69
2023/09/04 03:24:53;;;;;;;13.03;6.80;;;;;;;12.94;99.71;101179.16;4180395;28;21166;-67
2023/09/04 03:27:20;;;;;;;14.47;6.30;;;;;;;12.97;99.89;101181.59;4181398;28;20996;-70
2023/09/04 03:29:46;;;;;;;13.17;6.73;;;;;;;12.96;100.00;101183.44;4175114;28;20241;-69
2023/09/04 03:32:13;;;;;;;12.40;7.10;;;;;;;13.02;100.00;101189.31;4182839;28;20328;-67
2023/09/04 03:34:39;;;;;;;16.60;7.13;;;;;;;13.04;99.66;101192.72;4183336;28;21111;-66
2023/09/04 03:37:06;;;;;;;12.07;7.23;;;;;;;13.06;99.62;101193.44;4166597;28;21089;-65
2023/09/04 03:39:37;;;;;;;11.53;6.57;;;;;;;13.03;99.60;101199.19;4181213;28;20244;-66
2023/09/04 03:42:07;;;;;;;11.10;6.53;;;;;;;13.02;99.89;101200.19;4183834;28;20233;-68
2023/09/04 03:44:34;;;;;;;17.70;7.03;;;;;;;13.04;99.94;101209.03;4182475;28;20249;-67
2023/09/04 03:47:00;;;;;;;10.63;6.70;;;;;;;13.16;99.57;101213.34;4180402;28;20612;-67
2023/09/04 03:49:27;;;;;;;10.57;6.53;;;;;;;13.11;99.56;101213.78;4180682;28;20727;-66
2023/09/04 03:51:54;;;;;;;11.17;6.50;;;;;;;13.08;99.77;101208.59;4179825;28;20244;-68
2023/09/04 03:54:22;;;;;;;11.87;6.93;;;;;;;13.15;99.66;101209.75;4175128;28;20402;-68
2023/09/04 03:56:50;;;;;;;14.50;6.90;;;;;;;13.22;99.20;101211.91;4183564;28;20232;-70
2023/09/04 03:59:17;;;;;;;14.03;6.60;;;;;;;13.28;99.45;101223.03;4180183;28;20241;-67
2023/09/04 04:01:43;;;;;;;12.73;6.70;;;;;;;13.33;99.28;101217.16;4199838;28;20303;-67
2023/09/04 04:04:11;;;;;;;17.17;7.37;;;;;;;13.32;99.14;101215.44;4184491;28;20454;-66
2023/09/04 04:06:38;;;;;;;12.07;6.43;;;;;;;13.50;99.04;101214.72;4189903;28;20233;-67
2023/09/04 04:09:06;;;;;;;13.93;6.10;;;;;;;13.56;98.05;101211.41;4208516;28;22929;-68
2023/09/04 04:11:35;;;;;;;15.93;6.20;;;;;;;13.53;98.21;101225.28;4190888;28;20483;-68
2023/09/04 04:14:02;;;;;;;14.37;7.00;;;;;;;13.47;98.12;101224.03;4192711;28;20666;-68
2023/09/04 04:16:34;;;;;;;16.70;7.83;;;;;;;13.45;98.07;101223.31;4212308;28;21554;-67
2023/09/04 04:19:01;;;;;;;11.37;6.70;;;;;;;13.53;98.04;101208.97;4190968;28;20635;-67
2023/09/04 04:21:28;;;;;;;17.70;7.60;;;;;;;13.57;97.84;101219.41;4206168;28;20230;-65
2023/09/04 04:23:55;;;;;;;13.27;7.20;;;;;;;13.62;97.79;101222.56;4196377;28;21086;-70
2023/09/04 04:26:21;;;;;;;10.37;6.77;;;;;;;13.68;97.35;101222.97;4194408;28;20264;-68
2023/09/04 04:28:48;;;;;;;13.40;6.63;;;;;;;13.78;97.57;101223.81;4195305;28;20237;-67
2023/09/04 04:31:15;;;;;;;14.83;6.83;;;;;;;13.90;96.57;101219.88;4180149;28;20234;-68
2023/09/04 04:33:44;;;;;;;18.23;7.17;;;;;;;13.82;96.55;101216.19;4196402;28;20247;-68
2023/09/04 04:36:11;;;;;;;11.53;6.90;;;;;;;13.83;96.31;101213.31;4182220;28;21472;-69
2023/09/04 04:38:38;;;;;;;18.33;7.13;;;;;;;13.71;96.63;101209.94;4184783;28;20295;-68
2023/09/04 04:41:05;;;;;;;13.33;6.70;;;;;;;13.79;96.65;101210.03;4188394;28;20238;-66
2023/09/04 04:43:31;;;;;;;13.70;6.70;;;;;;;13.89;95.93;101209.16;4183252;28;20243;-68
2023/09/04 04:45:58;;;;;;;16.43;7.67;;;;;;;14.04;95.36;101209.50;4183658;28;20243;-69
2023/09/04 04:48:26;;;;;;;16.87;7.93;;;;;;;14.11;95.14;101210.59;4186549;28;20243;-70
2023/09/04 04:50:53;;;;;;;14.13;6.97;;;;;;;14.22;94.75;101206.81;4180374;28;20300;-72
2023/09/04 04:53:22;;;;;;;12.63;6.83;;;;;;;14.32;93.71;101212.19;4188414;28;22092;-69
2023/09/04 04:55:49;;;;;;;7.80;6.07;;;;;;;14.49;93.24;101210.53;4183961;28;21213;-70
2023/09/04 04:58:15;;;;;;;16.00;6.90;;;;;;;14.49;92.58;101208.63;4179924;28;20609;-71
2023/09/04 05:00:42;;;;;;;11.53;6.00;;;;;;;14.48;92.07;101211.53;4182796;28;20233;-68
2023/09/04 05:03:09;;;;;;;14.57;6.40;;;;;;;14.43;92.25;101212.00;4194113;28;20346;-69
2023/09/04 05:05:36;;;;;;;12.00;5.97;;;;;;;14.51;91.39;101222.97;4191990;28;22778;-71
2023/09/04 05:08:03;;;;;;;13.83;6.17;;;;;;;14.57;91.05;101230.53;4172592;28;20244;-71
2023/09/04 05:10:30;;;;;;;8.27;5.00;;;;;;;14.77;90.74;101230.41;4184377;28;20303;-72
2023/09/04 05:12:56;;;;;;;12.03;6.10;;;;;;;14.93;89.87;101224.25;4182667;28;20237;-70
2023/09/04 05:15:23;;;;;;;9.00;5.33;;;;;;;15.14;88.51;101215.75;4177216;28;20312;-69
2023/09/04 05:17:49;;;;;;;14.37;6.17;;;;;;;14.94;88.29;101211.47;4185827;28;20615;-70
2023/09/04 05:20:16;;;;;;;17.03;6.27;;;;;;;15.05;88.32;101214.81;4182375;28;20243;-70
2023/09/04 05:22:43;;;;;;;13.00;5.60;;;;;;;15.18;87.93;101214.41;4182352;28;20304;-69
2023/09/04 05:25:11;;;;;;;11.40;6.30;;;;;;;15.48;86.60;101214.97;4179159;28;21068;-69
2023/09/04 05:27:38;;;;;;;19.17;6.37;;;;;;;15.46;85.74;101219.72;4181124;28;20789;-66
2023/09/04 05:30:05;;;;;;;15.63;5.30;;;;;;;15.52;85.48;101221.78;4184172;28;20377;-66
2023/09/04 05:32:31;;;;;;;10.00;4.87;;;;;;;15.24;86.12;101231.16;4177643;28;21526;-67
2023/09/04 05:34:58;;;;;;;16.20;6.30;;;;;;;15.32;86.70;101236.66;4176931;28;20506;-66
2023/09/04 05:37:26;;;;;;;17.77;5.30;;;;;;;15.45;85.52;101239.00;4183977;28;22118;-67
2023/09/04 05:39:53;;;;;;;12.43;5.63;;;;;;;15.72;84.49;101246.16;4181191;28;21241;-65
2023/09/04 05:42:20;;;;;;;18.47;6.00;;;;;;;16.03;83.13;101250.25;4158879;28;20329;-66
2023/09/04 05:44:47;;;;;;;13.60;6.07;;;;;;;15.94;82.25;101250.22;4181696;28;20344;-66
2023/09/04 05:47:13;;;;;;;17.93;6.03;;;;;;;15.71;83.33;101257.25;4181618;28;20285;-65
2023/09/04 05:49:40;;;;;;;13.10;5.77;;;;;;;16.18;81.86;101250.50;4178557;28;20312;-65
2023/09/04 05:52:06;;;;;;;12.63;5.17;;;;;;;16.12;80.47;101250.16;4188162;28;20233;-66
2023/09/04 05:54:33;;;;;;;12.40;5.13;;;;;;;16.30;80.83;101250.06;4167004;28;20510;-66
2023/09/04 05:57:00;;;;;;;18.43;5.47;;;;;;;16.52;78.88;101258.66;4170331;28;20246;-64
2023/09/04 05:59:26;;;;;;;21.00;5.63;;;;;;;16.50;78.69;101246.19;4168000;28;20485;-63
2023/09/04 06:01:53;;;;;;;22.13;5.50;;;;;;;16.46;78.89;101265.66;4188789;28;20248;-66
2023/09/04 06:04:20;;;;;;;13.87;5.70;;;;;;;16.64;77.94;101262.78;4161754;28;20356;-64
2023/09/04 06:06:51;;;;;;;13.13;5.07;;;;;;;16.77;77.99;101269.63;4180321;28;21325;-65
2023/09/04 06:09:17;;;;;;;14.03;4.73;;;;;;;17.09;76.09;101282.56;4181086;28;21117;-63
2023/09/04 06:11:44;;;;;;;24.33;6.37;;;;;;;17.10;75.74;101280.66;4198360;28;20233;-66
2023/09/04 06:14:10;;;;;;;20.20;5.67;;;;;;;17.01;76.16;101274.34;4175597;28;20244;-65
2023/09/04 06:16:37;;;;;;;19.87;4.73;;;;;;;17.08;75.29;101275.38;4183788;28;20234;-66
2023/09/04 06:19:04;;;;;;;17.70;4.77;;;;;;;17.09;74.95;101279.81;4183247;28;21629;-67
2023/09/04 06:21:31;;;;;;;13.80;4.60;;;;;;;16.88;75.14;101282.16;4181753;28;20409;-64
2023/09/04 06:23:57;;;;;;;14.27;4.37;;;;;;;16.80;75.23;101278.34;4181803;28;25443;-64
2023/09/04 06:26:24;;;;;;;9.87;3.80;;;;;;;16.94;75.08;101282.34;4183810;28;21766;-65
2023/09/04 06:28:51;;;;;;;11.43;3.50;;;;;;;16.94;73.42;101290.56;4187248;28;20335;-65
2023/09/04 06:31:18;;;;;;;10.53;3.40;;;;;;;17.01;73.65;101300.81;4175871;28;20237;-68
2023/09/04 06:33:45;;;;;;;10.33;3.40;;;;;;;16.78;73.96;101309.63;4175288;28;20276;-66
2023/09/04 06:36:11;;;;;;;18.07;3.47;;;;;;;16.87;73.94;101318.72;4181249;28;20257;-66
2023/09/04 06:38:38;;;;;;;13.40;3.33;;;;;;;16.94;73.45;101309.69;4178008;28;20259;-67
2023/09/04 06:41:05;;;;;;;16.50;2.93;;;;;;;16.92;73.26;101319.94;4200531;28;20239;-65
2023/09/04 06:43:32;;;;;;;8.37;2.80;;;;;;;17.13;72.50;101328.72;4192249;28;20394;-65
2023/09/04 06:45:58;;;;;;;11.50;3.00;;;;;;;17.12;72.32;101322.41;4175050;28;20322;-68
2023/09/04 06:48:26;;;;;;;8.90;2.67;;;;;;;17.02;72.19;101322.56;4181612;28;20377;-65
2023/09/04 06:50:54;;;;;;;13.30;3.00;;;;;;;16.93;73.16;101327.13;4182759;28;22440;-66
2023/09/04 06:53:21;;;;;;;6.97;2.50;;;;;;;17.03;73.51;101320.66;4179632;28;20241;-65
2023/09/04 06:55:48;;;;;;;10.27;2.60;;;;;;;17.30;71.81;101316.75;4180658;28;20241;-66
2023/09/04 06:58:15;;;;;;;8.73;2.67;;;;;;;17.27;71.40;101320.69;4186593;28;20245;-65
2023/09/04 07:00:41;;;;;;;10.80;3.10;;;;;;;17.31;71.94;101331.28;4178885;28;20233;-66
2023/09/04 07:03:08;;;;;;;10.93;2.90;;;;;;;17.39;70.66;101339.50;4174817;28;21862;-67
2023/09/04 07:05:35;;;;;;;9.17;2.87;;;;;;;17.62;70.57;101331.47;4199876;28;21446;-66
2023/09/04 07:08:04;;;;;;;12.53;3.17;;;;;;;18.05;68.72;101331.28;4185459;28;20387;-67
2023/09/04 07:10:31;;;;;;;12.17;2.97;;;;;;;18.06;67.71;101327.50;4162642;28;21283;-65
2023/09/04 07:13:02;;;;;;;8.67;2.63;;;;;;;17.85;67.26;101337.09;4178111;28;20293;-65
2023/09/04 07:15:29;;;;;;;10.27;3.13;;;;;;;17.84;67.83;101332.63;4184764;28;20274;-68
2023/09/04 07:17:59;;;;;;;13.00;3.23;;;;;;;17.88;67.76;101328.53;4184982;28;20269;-65
2023/09/04 07:20:29;;;;;;;11.57;3.10;;;;;;;18.08;67.70;101322.69;4183399;28;20655;-66
2023/09/04 07:22:56;;;;;;;8.80;2.50;;;;;;;19.40;64.29;101318.41;4192455;28;20238;-64
2023/09/04 07:25:36;;;;;;;12.80;2.67;;;;;;;20.92;59.87;101322.78;4202259;28;20244;-67
2023/09/04 07:28:03;;;;;;;11.97;2.63;;;;;;;21.71;56.39;101326.53;4222139;28;21037;-67
2023/09/04 07:30:30;;;;;;;11.53;2.50;;;;;;;22.75;54.32;101324.84;4228400;28;20407;-66
2023/09/04 07:32:57;;;;;;;9.13;2.60;;;;;;;24.96;47.28;101332.13;4176996;28;20234;-67
2023/09/04 07:35:24;;;;;;;6.67;2.20;;;;;;;25.51;44.79;101332.69;4213719;28;20317;-66
2023/09/04 07:37:52;;;;;;;6.80;2.30;;;;;;;25.00;44.76;101336.19;4207179;28;21593;-67
2023/09/04 07:40:19;;;;;;;9.17;2.73;;;;;;;25.49;42.30;101334.81;4201433;28;22785;-66
2023/09/04 07:42:46;;;;;;;10.00;2.57;;;;;;;24.24;45.97;101337.72;4184493;28;20541;-68
2023/09/04 07:45:12;;;;;;;10.97;2.03;;;;;;;23.42;47.87;101338.81;4183839;28;21628;-67
2023/09/04 07:47:39;;;;;;;9.07;2.20;;;;;;;22.76;50.10;101340.34;4185391;28;20238;-67
2023/09/04 07:50:06;;;;;;;15.57;2.30;;;;;;;21.66;53.03;101356.56;4186327;28;21880;-69
2023/09/04 07:52:33;;;;;;;10.47;2.30;;;;;;;21.75;52.82;101352.63;4176985;28;20907;-71
2023/09/04 07:54:59;;;;;;;7.17;2.10;;;;;;;21.63;52.90;101349.56;4179408;28;20233;-70
2023/09/04 07:57:26;;;;;;;8.37;2.00;;;;;;;20.97;55.03;101336.81;4186852;28;20233;-69
2023/09/04 07:59:53;;;;;;;11.30;2.67;;;;;;;21.18;55.06;101329.59;4173172;28;21001;-71
2023/09/04 08:02:19;;;;;;;10.93;2.30;;;;;;;21.34;54.24;101325.72;4184835;28;21933;-69
2023/09/04 08:04:46;;;;;;;8.20;2.30;;;;;;;21.41;54.05;101323.06;4186078;28;20354;-69
2023/09/04 08:07:12;;;;;;;5.90;2.10;;;;;;;21.78;53.54;101334.84;4189294;28;22327;-68
2023/09/04 08:09:39;;;;;;;10.80;2.20;;;;;;;21.32;53.78;101333.38;4162195;28;20301;-70
2023/09/04 08:12:06;;;;;;;7.47;2.37;;;;;;;20.82;55.83;101336.84;4170658;28;20246;-69
2023/09/04 08:14:36;;;;;;;6.73;2.40;;;;;;;20.25;56.54;101339.25;4172650;28;20321;-69
2023/09/04 08:17:03;;;;;;;7.50;2.40;;;;;;;19.47;59.80;101330.38;4181085;28;20485;-71
2023/09/04 08:19:30;;;;;;;6.03;2.07;;;;;;;18.90;63.31;101337.97;4173334;28;20238;-69
2023/09/04 08:21:58;;;;;;;7.83;2.43;;;;;;;19.26;61.81;101328.31;4185095;28;20311;-71
2023/09/04 08:24:26;;;;;;;9.03;2.50;;;;;;;19.14;62.38;101331.47;4176751;28;20230;-70
2023/09/04 08:26:53;;;;;;;10.47;2.80;;;;;;;18.59;64.37;101330.56;4179677;28;22349;-71
2023/09/04 08:29:20;;;;;;;14.10;2.67;;;;;;;19.14;64.10;101338.88;4174372;28;20246;-72
2023/09/04 08:31:47;;;;;;;8.10;3.00;;;;;;;19.67;61.40;101340.84;4185800;28;20230;-74
2023/09/04 08:34:13;;;;;;;13.53;3.33;;;;;;;20.00;60.32;101346.06;4155456;28;22395;-72
2023/09/04 08:36:40;;;;;;;7.43;2.30;;;;;;;19.74;58.68;101355.56;4190885;28;20239;-72
2023/09/04 08:39:07;;;;;;;9.07;2.47;;;;;;;19.92;58.36;101344.25;4177985;28;21646;-74
2023/09/04 08:41:34;;;;;;;12.43;2.60;;;;;;;20.17;58.49;101361.34;4203093;28;20392;-72
2023/09/04 08:44:03;;;;;;;11.67;2.33;;;;;;;19.67;59.02;101365.59;4188164;28;20843;-73
2023/09/04 08:46:31;;;;;;;12.70;2.13;;;;;;;19.43;59.59;101360.09;4189292;28;20245;-72
2023/09/04 08:49:01;;;;;;;6.37;2.70;;;;;;;19.90;58.30;101355.41;4178029;28;20429;-73
2023/09/04 08:51:30;;;;;;;6.73;2.70;;;;;;;20.19;58.00;101353.75;4189484;28;20244;-75
2023/09/04 08:53:57;;;;;;;8.57;2.30;;;;;;;20.26;57.80;101362.09;4185655;28;22275;-72
2023/09/04 08:56:29;;;;;;;7.70;2.00;;;;;;;20.27;56.39;101361.91;4164958;28;20247;-74
2023/09/04 08:58:56;;;;;;;7.97;2.13;;;;;;;20.27;57.08;101358.31;4166100;28;20351;-75
2023/09/04 09:01:28;;;;;;;6.87;2.30;;;;;;;19.78;58.22;101362.38;4195557;28;20341;-73
2023/09/04 09:03:57;;;;;;;4.87;2.20;;;;;;;19.55;59.87;101351.44;4192568;28;20631;-74
2023/09/04 09:06:24;;;;;;;7.30;2.10;;;;;;;19.63;59.68;101360.44;4192455;28;21805;-74
2023/09/04 09:08:56;;;;;;;5.23;2.30;;;;;;;20.25;57.80;101361.25;4183990;28;20383;-73
2023/09/04 09:11:23;;;;;;;11.60;2.43;;;;;;;20.83;56.20;101366.06;4192813;28;21139;-73
2023/09/04 09:13:49;;;;;;;6.37;2.00;;;;;;;21.40;53.82;101352.50;4199687;28;22589;-72
2023/09/04 09:16:20;;;;;;;6.03;2.20;;;;;;;20.45;57.55;101355.16;4198114;28;20358;-73
2023/09/04 09:18:49;;;;;;;9.33;2.60;;;;;;;20.99;55.66;101362.25;4207192;28;21120;-74
2023/09/04 09:21:28;;;;;;;5.20;2.10;;;;;;;21.16;55.03;101357.34;4183431;28;20423;-72
2023/09/04 09:24:14;;;;;;;6.63;2.00;;;;;;;20.92;56.52;101354.94;4181344;28;20953;-69
2023/09/04 09:26:43;;;;;;;7.60;1.90;;;;;;;21.35;54.59;101357.75;4188062;28;20438;-66
2023/09/04 09:29:12;;;;;;;6.83;2.93;;;;;;;21.98;54.09;101357.06;4205055;28;20242;-66
2023/09/04 09:31:42;;;;;;;8.40;2.10;;;;;;;21.02;55.56;101347.25;4207535;28;20733;-67
2023/09/04 09:34:10;;;;;;;8.77;2.37;;;;;;;20.50;58.01;101349.09;4203618;28;20665;-65
2023/09/04 09:36:38;;;;;;;4.43;1.80;;;;;;;20.45;58.57;101351.56;4208024;28;20551;-63
2023/09/04 09:39:06;;;;;;;12.07;2.43;;;;;;;20.26;59.29;101343.72;4183145;28;20330;-64
2023/09/04 09:41:33;;;;;;;4.67;1.93;;;;;;;20.24;57.49;101350.44;4176818;28;22352;-67
2023/09/04 09:44:02;;;;;;;8.77;2.47;;;;;;;19.76;59.21;101350.72;4191892;28;20229;-67
2023/09/04 09:46:29;;;;;;;5.47;1.97;;;;;;;20.14;57.60;101344.38;4171011;28;20453;-67
2023/09/04 09:48:58;;;;;;;5.90;2.30;;;;;;;20.78;55.67;101348.41;4200759;28;20246;-66
2023/09/04 09:51:24;;;;;;;9.03;2.83;;;;;;;21.18;55.96;101346.13;4179145;28;21175;-69
2023/09/04 09:53:53;;;;;;;10.13;2.40;;;;;;;21.67;54.47;101356.41;4184810;28;20239;-66
2023/09/04 09:56:20;;;;;;;6.37;2.10;;;;;;;21.17;54.63;101348.03;4188422;28;20318;-64
2023/09/04 09:58:49;;;;;;;7.00;2.00;;;;;;;21.17;54.80;101353.56;4181607;28;20253;-68
2023/09/04 10:01:17;;;;;;;6.27;2.07;;;;;;;21.47;55.05;101352.56;4164893;28;20271;-69
2023/09/04 10:03:46;;;;;;;10.00;1.97;;;;;;;21.41;53.30;101350.59;4177297;28;20761;-64
2023/09/04 10:06:23;;;;;;;7.47;2.07;;;;;;;21.74;52.61;101350.94;4167142;28;22223;-52
2023/09/04 10:08:52;;;;;;;6.40;1.97;;;;;;;21.36;52.70;101349.31;4178633;28;21206;-72
2023/09/04 10:11:19;;;;;;;3.87;1.70;;;;;;;21.32;53.48;101349.88;4242087;28;20467;-70
2023/09/04 10:13:54;;;;;;;11.43;2.17;;;;;;;20.22;54.20;101356.13;4301802;28;20245;-69
2023/09/04 10:16:35;;;;;;;6.07;2.07;;;;;;;20.12;54.42;101344.56;4190217;28;20541;-74
2023/09/04 10:19:02;;;;;;;5.30;2.40;;;;;;;20.13;54.96;101343.50;4211767;28;20301;-73
2023/09/04 10:21:33;;;;;;;5.30;1.90;;;;;;;20.99;53.23;101337.47;4194797;28;20237;-72
2023/09/04 10:24:05;;;;;;;5.27;2.10;;;;;;;21.13;53.16;101323.84;4189377;28;20244;-69
2023/09/04 10:26:39;;;;;;;7.97;2.10;;;;;;;21.55;51.69;101335.06;4191572;28;20235;-71
2023/09/04 10:29:11;;;;;;;6.60;1.90;;;;;;;21.26;52.96;101331.41;4197176;28;22914;-69
2023/09/04 10:31:39;;;;;;;10.03;2.47;;;;;;;21.43;53.01;101330.06;4210963;28;20241;-73
2023/09/04 10:34:06;;;;;;;5.63;1.97;;;;;;;21.06;54.25;101334.78;4191702;28;20238;-69
2023/09/04 10:36:34;;;;;;;6.97;1.80;;;;;;;21.21;54.02;101334.75;4186642;28;20751;-75
2023/09/04 10:39:01;;;;;;;5.77;1.97;;;;;;;21.03;54.94;101341.53;4207032;28;20370;-71
2023/09/04 10:41:29;;;;;;;6.97;1.77;;;;;;;20.40;56.57;101344.75;4185322;28;22093;-72
2023/09/04 10:43:56;;;;;;;5.73;2.10;;;;;;;20.29;56.41;101347.97;4166903;28;20239;-72
2023/09/04 10:46:24;;;;;;;5.43;1.80;;;;;;;20.65;55.33;101349.94;4207516;28;20394;-73
2023/09/04 10:48:53;;;;;;;9.47;2.20;;;;;;;21.07;53.19;101353.00;4195691;28;20336;-74
2023/09/04 10:51:31;;;;;;;5.23;1.77;;;;;;;21.09;52.60;101339.03;4190045;28;20234;-71
2023/09/04 10:54:18;;;;;;;7.20;2.07;;;;;;;21.38;49.11;101338.06;4188818;28;20303;-74
2023/09/04 10:57:05;;;;;;;5.47;1.87;;;;;;;20.82;49.35;101336.84;4173999;28;21819;-71
2023/09/04 10:59:55;;;;;;;7.20;2.47;;;;;;;21.16;49.32;101339.97;4192525;28;21772;-71
2023/09/04 11:02:33;;;;;;;6.63;2.03;;;;;;;21.32;50.08;101330.59;4190339;28;20248;-70
2023/09/04 11:05:02;;;;;;;5.57;1.83;;;;;;;21.47;50.70;101328.63;4186902;28;20398;-72
2023/09/04 11:07:29;;;;;;;5.47;2.10;;;;;;;20.96;52.16;101329.59;4184820;28;20263;-72
2023/09/04 11:10:14;;;;;;;3.90;1.97;;;;;;;20.62;54.08;101327.47;4197944;28;20690;-72
2023/09/04 11:12:44;;;;;;;6.00;1.90;;;;;;;20.48;54.27;101334.69;4183620;28;20245;-69
2023/09/04 11:15:11;;;;;;;5.03;1.87;;;;;;;20.61;54.64;101334.88;4176575;28;20291;-75
2023/09/04 11:17:40;;;;;;;8.67;1.90;;;;;;;21.25;50.87;101327.78;4185450;28;20236;-74
2023/09/04 11:20:09;;;;;;;6.83;2.67;;;;;;;21.31;51.31;101317.88;4188986;28;26470;-74
2023/09/04 11:22:36;;;;;;;6.60;1.90;;;;;;;21.51;51.44;101329.94;4176989;28;20230;-78
2023/09/04 11:25:03;;;;;;;4.40;1.90;;;;;;;21.74;49.80;101330.78;4182446;28;20273;-74